Terminal Aerodrome Forecast
Issued by NWS

Current Version | Previous Version | Text Only | Print | Product List | Glossary Off
Versions: 1 2 3 4 5 6 7 8 9 10 11 12 13 14

000
FTUS41 KPBZ 280529
TAFHLG
TAF
KHLG 280529Z 2806/2906 22005KT P6SM SCT040
     FM281100 28004KT P6SM BKN025 BKN040
     FM281500 36006KT P6SM SCT040
     FM290200 03004KT P6SM SKC
      AMD NOT SKED=

USA.gov is the U.S. government's official web portal to all federal, state and local government web resources and services.